Artesia, New Mexico
Current Conditions -  °F | °C
As of 3:51 PM on Friday 28 Nov 2014 (Local Time) from KROW Reporting Station
Clear Clear  
Wind Chill: 70°   Ceiling: Unl
Heat Index: 70°   Visibility: 10mi
Dew Point: 31°   Wind: 7mph
Humidity: 24%   Direction: 160°SSE
Pressure: 29.99"   Gusts: NA
Location:  32.84°N, 104.39°W
Report Text: KROW 282251Z 16006KT 10SM CLR 21/M01 A2999 RMK AO2 SLP127 T02111006
Loading
Personal Weather Stations






























Interactive Weather Map New forecast layout! Learn more

10-Day Weather Forecast

Advertisements
Track Severe Weather on mobile